createdAt,value
2022-09-26T00:00:22.455Z,5.45
2022-09-26T00:02:53.239Z,5.65
2022-09-26T00:05:23.905Z,4.88
2022-09-26T00:07:56.753Z,5.68
2022-09-26T00:10:25.365Z,7.25
2022-09-26T00:12:58.868Z,11.80
2022-09-26T00:15:32.269Z,13.02
2022-09-26T00:18:03.350Z,9.20
2022-09-26T00:20:31.283Z,4.68
2022-09-26T00:25:59.596Z,9.43
2022-09-26T00:28:31.736Z,6.57
2022-09-26T00:31:27.918Z,5.82
2022-09-26T00:34:07.982Z,9.05
2022-09-26T00:36:58.212Z,7.90
2022-09-26T00:39:32.972Z,6.40
2022-09-26T00:42:01.545Z,7.80
2022-09-26T00:44:51.725Z,6.72
2022-09-26T00:47:26.627Z,6.80
2022-09-26T00:50:06.237Z,2.63
2022-09-26T00:52:43.377Z,5.32
2022-09-26T00:55:17.842Z,6.57
2022-09-26T00:58:08.970Z,7.57
2022-09-26T01:00:42.379Z,4.65
2022-09-26T01:03:14.463Z,8.85
2022-09-26T01:05:50.688Z,5.72
2022-09-26T01:08:32.996Z,7.13
2022-09-26T01:11:02.561Z,6.05
2022-09-26T01:13:36.716Z,6.38
2022-09-26T01:16:04.630Z,12.70
2022-09-26T01:18:41.919Z,3.92
2022-09-26T01:21:34.510Z,5.88
2022-09-26T01:24:20.033Z,2.88
2022-09-26T01:27:08.406Z,4.65
2022-09-26T01:29:57.699Z,5.43
2022-09-26T01:32:51.686Z,5.28
2022-09-26T01:36:06.464Z,6.00
2022-09-26T01:39:08.603Z,8.82
2022-09-26T01:42:30.950Z,4.60
2022-09-26T01:45:28.660Z,6.32
2022-09-26T01:48:23.845Z,6.88
2022-09-26T01:51:02.223Z,7.72
2022-09-26T01:53:49.940Z,8.05
2022-09-26T01:56:28.375Z,16.00
2022-09-26T01:59:14.228Z,6.30
2022-09-26T02:01:53.271Z,9.27
2022-09-26T02:04:32.695Z,3.13
2022-09-26T02:07:24.821Z,5.07
2022-09-26T02:10:06.667Z,6.72
2022-09-26T02:12:40.585Z,6.55
2022-09-26T02:15:28.351Z,5.40
2022-09-26T02:18:10.234Z,4.68
2022-09-26T02:20:55.744Z,9.55
2022-09-26T02:23:28.455Z,9.32
2022-09-26T02:26:04.386Z,8.07
2022-09-26T02:28:39.873Z,7.38
2022-09-26T02:31:13.557Z,4.07
2022-09-26T02:33:46.141Z,6.97
2022-09-26T02:36:26.720Z,5.85
2022-09-26T02:38:55.118Z,6.60
2022-09-26T02:42:24.810Z,8.55
2022-09-26T02:45:43.105Z,8.68
2022-09-26T02:48:14.200Z,6.57
2022-09-26T02:51:05.615Z,7.28
2022-09-26T02:53:57.822Z,10.13
2022-09-26T02:57:03.859Z,7.82
2022-09-26T03:00:05.696Z,9.48
2022-09-26T03:02:54.819Z,10.43
2022-09-26T03:05:29.986Z,8.02
2022-09-26T03:08:00.625Z,5.03
2022-09-26T03:10:37.804Z,4.93
2022-09-26T03:13:11.650Z,6.15
2022-09-26T03:15:45.081Z,10.95
2022-09-26T03:18:22.162Z,8.57
2022-09-26T03:20:54.879Z,9.13
2022-09-26T03:23:35.581Z,7.10
2022-09-26T03:26:36.846Z,5.43
2022-09-26T03:29:40.507Z,5.95
2022-09-26T03:32:32.899Z,8.63
2022-09-26T03:35:07.070Z,6.85
2022-09-26T03:37:38.107Z,10.15
2022-09-26T03:40:14.280Z,3.58
2022-09-26T03:43:23.579Z,7.75
2022-09-26T03:45:56.287Z,4.85
2022-09-26T03:48:33.044Z,6.75
2022-09-26T03:51:12.150Z,8.98
2022-09-26T03:53:43.012Z,8.82
2022-09-26T03:56:23.581Z,8.60
2022-09-26T03:58:54.022Z,9.35
2022-09-26T04:01:28.881Z,7.32
2022-09-26T04:03:57.998Z,10.05
2022-09-26T04:06:32.180Z,6.25
2022-09-26T04:09:02.882Z,6.20
2022-09-26T04:11:35.878Z,6.65
2022-09-26T04:14:10.874Z,7.13
2022-09-26T04:16:40.852Z,8.52
2022-09-26T04:19:26.903Z,8.50
2022-09-26T04:21:57.965Z,9.55
2022-09-26T04:24:26.049Z,7.43
2022-09-26T04:26:58.874Z,6.28
2022-09-26T04:29:29.532Z,7.93
2022-09-26T04:32:13.014Z,10.43
2022-09-26T04:34:59.512Z,12.73
2022-09-26T04:37:31.097Z,4.85
2022-09-26T04:40:02.237Z,8.18
2022-09-26T04:42:35.534Z,9.07
2022-09-26T04:45:08.218Z,7.53
2022-09-26T04:47:36.293Z,4.57
2022-09-26T04:50:29.458Z,7.65
2022-09-26T04:53:11.187Z,5.40
2022-09-26T04:55:48.527Z,6.78
2022-09-26T04:58:43.796Z,5.93
2022-09-26T05:01:26.188Z,10.43
2022-09-26T05:04:34.994Z,8.30
2022-09-26T05:07:03.783Z,9.75
2022-09-26T05:09:36.521Z,6.70
2022-09-26T05:12:26.700Z,4.88
2022-09-26T05:14:57.080Z,7.03
2022-09-26T05:19:58.852Z,6.13
2022-09-26T05:22:44.942Z,3.63
2022-09-26T05:25:44.165Z,5.65
2022-09-26T05:28:15.145Z,4.60
2022-09-26T05:30:45.034Z,6.50
2022-09-26T05:33:25.577Z,6.18
2022-09-26T05:35:56.236Z,6.25
2022-09-26T05:38:25.714Z,6.80
2022-09-26T05:41:04.517Z,4.57
2022-09-26T05:43:42.503Z,6.40
2022-09-26T05:46:17.995Z,7.60
2022-09-26T05:48:53.552Z,8.70
2022-09-26T05:51:49.058Z,7.05
2022-09-26T05:54:27.846Z,5.22
2022-09-26T05:57:01.466Z,8.80
2022-09-26T05:59:47.071Z,1.38
2022-09-26T06:02:45.671Z,2.25
2022-09-26T06:05:40.879Z,2.33
2022-09-26T06:08:29.478Z,6.13
2022-09-26T06:11:38.705Z,3.47
2022-09-26T06:14:28.498Z,1.67
2022-09-26T06:16:57.350Z,3.00
2022-09-26T06:19:29.550Z,5.30
2022-09-26T06:22:01.098Z,4.00
2022-09-26T06:24:39.293Z,3.25
2022-09-26T06:27:10.794Z,3.63
2022-09-26T06:29:47.380Z,1.85
2022-09-26T06:32:25.522Z,3.50
2022-09-26T06:35:23.922Z,3.70
2022-09-26T06:38:07.818Z,3.30
2022-09-26T06:40:36.569Z,5.50
2022-09-26T06:43:11.753Z,3.35
2022-09-26T06:46:14.902Z,6.18
2022-09-26T06:49:03.083Z,2.65
2022-09-26T06:51:49.348Z,1.98
2022-09-26T06:54:18.991Z,4.47
2022-09-26T06:56:47.401Z,6.60
2022-09-26T06:59:16.835Z,7.40
2022-09-26T07:01:53.213Z,7.43
2022-09-26T07:04:57.990Z,4.53
2022-09-26T07:07:39.828Z,5.25
2022-09-26T07:10:10.981Z,3.25
2022-09-26T07:13:06.289Z,5.95
2022-09-26T07:15:35.385Z,9.02
2022-09-26T07:18:12.026Z,1.88
2022-09-26T07:21:05.374Z,2.38
2022-09-26T07:23:50.961Z,4.60
2022-09-26T07:26:21.370Z,5.85
2022-09-26T07:28:54.548Z,5.53
2022-09-26T07:31:24.767Z,4.22
2022-09-26T07:34:17.337Z,3.75
2022-09-26T07:36:47.461Z,9.57
2022-09-26T07:39:15.566Z,6.65
2022-09-26T07:41:47.444Z,4.43
2022-09-26T07:45:17.148Z,5.57
2022-09-26T07:47:22.894Z,5.30
2022-09-26T07:50:09.205Z,6.93
2022-09-26T07:52:46.364Z,6.47
2022-09-26T07:55:26.616Z,5.80
2022-09-26T07:58:40.024Z,6.07
2022-09-26T08:01:26.492Z,8.43
2022-09-26T08:04:20.542Z,5.88
2022-09-26T08:06:50.186Z,4.07
2022-09-26T08:09:18.420Z,3.63
2022-09-26T08:12:04.656Z,9.15
2022-09-26T08:14:49.604Z,5.25
2022-09-26T08:17:30.586Z,7.78
2022-09-26T08:20:00.259Z,7.60
2022-09-26T08:22:28.765Z,6.67
2022-09-26T08:24:58.919Z,14.35
2022-09-26T08:27:37.747Z,10.85
2022-09-26T08:30:06.008Z,9.18
2022-09-26T08:32:33.847Z,14.63
2022-09-26T08:35:02.169Z,10.82
2022-09-26T08:37:32.355Z,11.43
2022-09-26T08:40:42.513Z,9.20
2022-09-26T08:43:47.526Z,10.90
2022-09-26T08:46:48.631Z,14.38
2022-09-26T08:50:04.445Z,14.65
2022-09-26T08:52:52.030Z,17.92
2022-09-26T08:55:32.942Z,11.68
2022-09-26T08:58:05.846Z,16.42
2022-09-26T09:00:38.210Z,13.43
2022-09-26T09:03:18.421Z,23.77
2022-09-26T09:05:50.335Z,15.27
2022-09-26T09:08:22.892Z,19.75
2022-09-26T09:11:23.793Z,19.95
2022-09-26T09:13:57.427Z,17.80
2022-09-26T09:17:09.199Z,20.85
2022-09-26T09:20:15.040Z,19.70
2022-09-26T09:23:06.687Z,17.77
2022-09-26T09:29:19.661Z,19.35
2022-09-26T09:32:14.118Z,20.23
2022-09-26T09:35:05.267Z,21.80
2022-09-26T09:37:54.489Z,20.08
2022-09-26T09:40:47.084Z,27.42
2022-09-26T09:43:26.695Z,22.35
2022-09-26T09:46:02.044Z,23.50
2022-09-26T09:48:30.248Z,20.48
2022-09-26T09:51:10.658Z,25.00
2022-09-26T09:54:07.229Z,23.00
2022-09-26T09:56:35.020Z,18.13
2022-09-26T09:59:03.862Z,26.02
2022-09-26T10:01:46.986Z,26.98
2022-09-26T10:04:38.128Z,37.72
2022-09-26T10:07:06.447Z,23.40
2022-09-26T10:09:44.060Z,30.92
2022-09-26T10:12:33.392Z,32.28
2022-09-26T10:15:43.420Z,23.45
2022-09-26T10:18:24.697Z,31.85
2022-09-26T10:23:47.092Z,27.90
2022-09-26T10:26:39.754Z,21.73
2022-09-26T10:29:22.851Z,21.70
2022-09-26T10:31:57.309Z,26.33
2022-09-26T10:34:37.131Z,25.10
2022-09-26T10:37:31.340Z,24.75
2022-09-26T10:40:47.816Z,18.02
2022-09-26T10:43:52.319Z,22.88
2022-09-26T10:46:45.466Z,19.00
2022-09-26T10:49:51.097Z,24.30
2022-09-26T10:52:43.985Z,21.05
2022-09-26T10:55:26.587Z,25.63
2022-09-26T10:57:57.628Z,19.60
2022-09-26T11:00:40.267Z,23.17
2022-09-26T11:03:24.920Z,17.35
2022-09-26T11:06:45.430Z,26.83
2022-09-26T11:09:27.186Z,20.42
2022-09-26T11:15:14.833Z,20.73
2022-09-26T11:17:47.191Z,15.40
2022-09-26T11:20:20.828Z,25.70
2022-09-26T11:23:04.653Z,18.30
2022-09-26T11:25:42.249Z,17.58
2022-09-26T11:28:16.593Z,15.77
2022-09-26T11:31:25.855Z,17.38
2022-09-26T11:34:17.922Z,20.33
2022-09-26T11:37:13.340Z,19.58
2022-09-26T11:39:50.634Z,15.30
2022-09-26T11:42:54.912Z,15.60
2022-09-26T11:45:56.116Z,18.67
2022-09-26T11:49:02.094Z,16.83
2022-09-26T11:52:19.289Z,15.90
2022-09-26T11:55:18.518Z,16.73
2022-09-26T11:58:28.250Z,16.50
2022-09-26T12:01:17.022Z,19.93
2022-09-26T12:03:53.795Z,9.35
2022-09-26T12:06:37.849Z,27.60
2022-09-26T12:09:24.001Z,12.32
2022-09-26T12:12:10.125Z,13.15
2022-09-26T12:14:45.483Z,14.10
2022-09-26T12:17:36.191Z,16.20
2022-09-26T12:20:37.614Z,12.20
2022-09-26T12:23:08.131Z,14.88
2022-09-26T12:25:45.577Z,10.73
2022-09-26T12:28:36.616Z,10.75
2022-09-26T12:31:12.463Z,13.63
2022-09-26T12:33:44.928Z,12.93
2022-09-26T12:36:31.332Z,16.08
2022-09-26T12:39:24.889Z,10.63
2022-09-26T12:42:44.078Z,14.32
2022-09-26T12:45:22.102Z,8.43
2022-09-26T12:47:55.702Z,8.23
2022-09-26T12:50:47.629Z,10.18
2022-09-26T12:53:27.814Z,14.90
2022-09-26T12:56:07.345Z,14.57
2022-09-26T12:58:57.925Z,12.50
2022-09-26T13:01:50.156Z,15.98
2022-09-26T13:04:20.984Z,7.10
2022-09-26T13:07:17.685Z,7.03
2022-09-26T13:10:05.015Z,8.95
2022-09-26T13:12:57.415Z,7.93
2022-09-26T13:15:35.455Z,9.65
2022-09-26T13:18:23.044Z,10.35
2022-09-26T13:20:59.093Z,12.05
2022-09-26T13:23:41.121Z,8.88
2022-09-26T13:26:17.869Z,9.88
2022-09-26T13:29:16.265Z,7.57
2022-09-26T13:32:04.582Z,10.63
2022-09-26T13:34:45.396Z,6.78
2022-09-26T13:38:04.012Z,10.88
2022-09-26T13:40:37.020Z,14.05
2022-09-26T13:43:07.866Z,6.30
2022-09-26T13:46:05.165Z,9.73
2022-09-26T13:48:58.964Z,5.47
2022-09-26T13:51:49.719Z,7.03
2022-09-26T13:54:27.408Z,13.38
2022-09-26T13:56:56.045Z,5.80
2022-09-26T13:59:49.220Z,7.82
2022-09-26T14:02:29.448Z,10.13
2022-09-26T14:05:03.444Z,7.15
2022-09-26T14:08:06.167Z,6.07
2022-09-26T14:10:36.787Z,7.03
2022-09-26T14:15:49.469Z,9.05
2022-09-26T14:18:45.126Z,11.45
2022-09-26T14:21:34.784Z,4.22
2022-09-26T14:24:20.737Z,7.50
2022-09-26T14:26:57.651Z,7.95
2022-09-26T14:29:30.051Z,17.20
2022-09-26T14:32:04.556Z,8.93
2022-09-26T14:34:47.697Z,6.28
2022-09-26T14:37:26.586Z,10.27
2022-09-26T14:40:00.650Z,12.00
2022-09-26T14:42:34.927Z,8.40
2022-09-26T14:45:17.984Z,13.88
2022-09-26T14:47:56.500Z,15.43
2022-09-26T14:50:35.411Z,16.00
2022-09-26T14:53:21.037Z,13.90
2022-09-26T14:56:03.510Z,13.93
2022-09-26T14:58:50.682Z,9.50
2022-09-26T15:01:30.816Z,11.90
2022-09-26T15:04:04.267Z,8.10
2022-09-26T15:06:39.272Z,12.73
2022-09-26T15:09:12.490Z,12.52
2022-09-26T15:11:44.816Z,10.73
2022-09-26T15:14:21.404Z,7.68
2022-09-26T15:16:52.998Z,6.93
2022-09-26T15:19:37.031Z,11.68
2022-09-26T15:22:15.386Z,11.25
2022-09-26T15:24:43.048Z,9.80
2022-09-26T15:27:29.137Z,10.05
2022-09-26T15:30:04.969Z,12.52
2022-09-26T15:32:33.879Z,15.52
2022-09-26T15:35:03.428Z,9.38
2022-09-26T15:37:34.119Z,12.77
2022-09-26T15:42:57.882Z,14.32
2022-09-26T15:45:36.090Z,13.43
2022-09-26T15:48:06.443Z,16.35
2022-09-26T15:50:36.312Z,13.82
2022-09-26T15:53:25.024Z,14.05
2022-09-26T15:56:09.649Z,10.90
2022-09-26T15:58:40.334Z,11.60
2022-09-26T16:01:09.389Z,11.35
2022-09-26T16:03:45.528Z,11.35
2022-09-26T16:06:53.163Z,14.55
2022-09-26T16:09:31.537Z,14.80
2022-09-26T16:12:11.623Z,17.05
2022-09-26T16:14:54.850Z,12.30
2022-09-26T16:17:32.632Z,18.07
2022-09-26T16:20:18.514Z,14.52
2022-09-26T16:22:51.256Z,16.65
2022-09-26T16:25:19.009Z,11.23
2022-09-26T16:27:49.715Z,10.10
2022-09-26T16:30:23.754Z,9.95
2022-09-26T16:33:03.396Z,12.77
2022-09-26T16:35:35.389Z,12.35
2022-09-26T16:38:07.405Z,8.95
2022-09-26T16:40:36.302Z,14.65
2022-09-26T16:43:30.741Z,13.70
2022-09-26T16:46:07.746Z,15.02
2022-09-26T16:48:50.558Z,13.93
2022-09-26T16:51:25.535Z,13.00
2022-09-26T16:54:20.777Z,12.13
2022-09-26T16:56:53.464Z,6.10
2022-09-26T16:59:31.647Z,10.25
2022-09-26T17:02:02.410Z,10.60
2022-09-26T17:04:36.225Z,3.92
2022-09-26T17:07:15.450Z,4.72
2022-09-26T17:09:44.125Z,4.80
2022-09-26T17:12:19.273Z,7.47
2022-09-26T17:14:51.840Z,8.02
2022-09-26T17:17:23.957Z,4.10
2022-09-26T17:19:59.045Z,6.72
2022-09-26T17:22:28.045Z,4.22
2022-09-26T17:24:55.842Z,3.28
2022-09-26T17:27:27.267Z,5.10
2022-09-26T17:29:59.740Z,6.10
2022-09-26T17:32:39.175Z,6.82
2022-09-26T17:35:39.752Z,6.18
2022-09-26T17:38:10.592Z,6.60
2022-09-26T17:40:41.231Z,6.22
2022-09-26T17:45:43.546Z,4.95
2022-09-26T17:48:19.727Z,6.05
2022-09-26T17:50:48.191Z,4.38
2022-09-26T17:53:21.120Z,3.88
2022-09-26T17:55:49.905Z,6.97
2022-09-26T17:58:18.093Z,8.27
2022-09-26T18:00:49.550Z,8.02
2022-09-26T18:03:23.820Z,11.45
2022-09-26T18:05:52.173Z,7.03
2022-09-26T18:08:22.465Z,9.82
2022-09-26T18:10:57.093Z,6.40
2022-09-26T18:13:28.656Z,6.97
2022-09-26T18:16:00.578Z,8.60
2022-09-26T18:18:31.008Z,5.55
2022-09-26T18:21:03.797Z,8.70
2022-09-26T18:23:57.521Z,12.38
2022-09-26T18:26:32.279Z,9.25
2022-09-26T18:29:06.294Z,8.50
2022-09-26T18:31:39.323Z,8.98
2022-09-26T18:34:12.916Z,9.18
2022-09-26T18:36:42.847Z,11.48
2022-09-26T18:39:10.892Z,5.85
2022-09-26T18:41:40.066Z,10.48
2022-09-26T18:44:16.105Z,7.43
2022-09-26T18:46:47.101Z,9.38
2022-09-26T18:49:15.988Z,11.48
2022-09-26T18:51:45.866Z,7.05
2022-09-26T18:54:16.118Z,10.57
2022-09-26T18:57:02.598Z,6.97
2022-09-26T18:59:32.994Z,9.57
2022-09-26T19:02:02.710Z,10.82
2022-09-26T19:04:31.591Z,13.75
2022-09-26T19:07:03.423Z,7.95
2022-09-26T19:09:33.894Z,13.93
2022-09-26T19:12:04.911Z,11.55
2022-09-26T19:14:32.614Z,11.57
2022-09-26T19:17:00.550Z,12.98
2022-09-26T19:19:30.227Z,15.45
2022-09-26T19:22:08.113Z,13.10
2022-09-26T19:24:55.138Z,13.43
2022-09-26T19:27:25.241Z,7.20
2022-09-26T19:30:11.464Z,8.63
2022-09-26T19:32:49.408Z,13.35
2022-09-26T19:35:21.156Z,8.70
2022-09-26T19:37:49.167Z,13.43
2022-09-26T19:40:22.137Z,8.25
2022-09-26T19:42:50.449Z,11.30
2022-09-26T19:45:19.281Z,8.15
2022-09-26T19:47:50.606Z,11.05
2022-09-26T19:50:28.658Z,6.80
2022-09-26T19:53:01.135Z,7.55
2022-09-26T19:55:30.734Z,14.40
2022-09-26T19:58:11.014Z,7.53
2022-09-26T20:00:42.574Z,9.18
2022-09-26T20:03:20.046Z,7.43
2022-09-26T20:05:49.526Z,8.80
2022-09-26T20:08:22.183Z,7.85
2022-09-26T20:10:50.911Z,8.68
2022-09-26T20:13:19.261Z,12.82
2022-09-26T20:15:51.386Z,8.63
2022-09-26T20:20:55.695Z,5.38
2022-09-26T20:23:26.573Z,9.18
2022-09-26T20:25:55.420Z,6.47
2022-09-26T20:28:23.244Z,11.75
2022-09-26T20:30:58.614Z,6.28
2022-09-26T20:33:27.075Z,7.93
2022-09-26T20:36:04.961Z,8.73
2022-09-26T20:38:42.467Z,6.22
2022-09-26T20:41:22.305Z,11.48
2022-09-26T20:44:01.857Z,10.03
2022-09-26T20:46:36.536Z,7.90
2022-09-26T20:49:07.838Z,6.13
2022-09-26T20:51:35.912Z,5.25
2022-09-26T20:54:06.525Z,6.75
2022-09-26T20:56:34.226Z,7.32
2022-09-26T20:59:01.953Z,7.35
2022-09-26T21:01:29.740Z,6.47
2022-09-26T21:03:58.207Z,10.23
2022-09-26T21:06:31.827Z,8.68
2022-09-26T21:08:59.827Z,8.00
2022-09-26T21:11:27.765Z,8.25
2022-09-26T21:13:55.530Z,6.70
2022-09-26T21:16:23.229Z,7.18
2022-09-26T21:18:52.575Z,6.57
2022-09-26T21:21:24.164Z,6.15
2022-09-26T21:24:16.674Z,7.05
2022-09-26T21:26:44.660Z,6.57
2022-09-26T21:29:16.710Z,5.10
2022-09-26T21:31:49.189Z,6.78
2022-09-26T21:34:23.141Z,9.02
2022-09-26T21:36:53.056Z,7.40
2022-09-26T21:39:21.447Z,8.18
2022-09-26T21:41:52.691Z,11.43
2022-09-26T21:44:29.296Z,5.82
2022-09-26T21:46:56.882Z,6.72
2022-09-26T21:49:24.899Z,8.27
2022-09-26T21:51:58.390Z,8.05
2022-09-26T21:54:32.964Z,9.10
2022-09-26T21:57:09.747Z,5.05
2022-09-26T21:59:39.886Z,5.15
2022-09-26T22:02:07.643Z,7.10
2022-09-26T22:04:35.859Z,7.88
2022-09-26T22:07:03.565Z,6.30
2022-09-26T22:09:31.409Z,5.38
2022-09-26T22:11:59.404Z,3.67
2022-09-26T22:14:28.648Z,4.63
2022-09-26T22:16:57.597Z,4.30
2022-09-26T22:19:27.439Z,9.02
2022-09-26T22:21:55.839Z,12.85
2022-09-26T22:24:25.760Z,5.50
2022-09-26T22:26:53.770Z,5.32
2022-09-26T22:29:21.435Z,9.27
2022-09-26T22:31:49.288Z,8.43
2022-09-26T22:34:16.999Z,8.38
2022-09-26T22:36:44.960Z,11.38
2022-09-26T22:39:12.834Z,12.98
2022-09-26T22:41:40.663Z,3.60
2022-09-26T22:44:09.283Z,3.80
2022-09-26T22:46:37.161Z,6.03
2022-09-26T22:49:05.240Z,8.48
2022-09-26T22:51:34.531Z,7.95
2022-09-26T22:54:02.303Z,5.40
2022-09-26T22:56:30.382Z,6.35
2022-09-26T22:58:58.322Z,2.95
2022-09-26T23:01:27.943Z,7.25
2022-09-26T23:03:57.987Z,10.52
2022-09-26T23:06:26.030Z,7.55
2022-09-26T23:08:54.996Z,6.47
2022-09-26T23:11:23.004Z,5.07
2022-09-26T23:13:52.213Z,7.65
2022-09-26T23:16:22.367Z,7.30
2022-09-26T23:18:51.012Z,6.95
2022-09-26T23:21:20.981Z,5.15
2022-09-26T23:23:51.533Z,4.82
2022-09-26T23:26:31.261Z,7.45
2022-09-26T23:28:59.849Z,7.68
2022-09-26T23:31:28.588Z,8.38
2022-09-26T23:33:57.478Z,5.80
2022-09-26T23:36:25.399Z,5.75
2022-09-26T23:38:53.377Z,5.22
2022-09-26T23:41:21.023Z,8.05
2022-09-26T23:43:48.763Z,5.63
2022-09-26T23:46:16.634Z,10.60
2022-09-26T23:48:47.282Z,5.85
2022-09-26T23:53:44.625Z,7.65
2022-09-26T23:56:18.301Z,6.97
2022-09-26T23:58:47.309Z,8.70
